createdAt,value
2022-10-23T00:01:26.483Z,10.73
2022-10-23T00:06:19.694Z,11.93
2022-10-23T00:11:14.687Z,11.07
2022-10-23T00:16:07.660Z,11.57
2022-10-23T00:20:59.907Z,10.07
2022-10-23T00:25:52.157Z,10.77
2022-10-23T00:30:44.385Z,10.00
2022-10-23T00:35:43.617Z,9.50
2022-10-23T00:40:37.946Z,9.50
2022-10-23T00:45:33.584Z,8.80
2022-10-23T00:50:27.464Z,7.93
2022-10-23T00:55:23.230Z,7.80
2022-10-23T01:00:40.874Z,7.80
2022-10-23T01:05:41.033Z,7.50
2022-10-23T01:10:49.093Z,8.50
2022-10-23T01:15:52.097Z,7.30
2022-10-23T01:20:46.146Z,11.07
2022-10-23T01:25:44.411Z,9.50
2022-10-23T01:35:40.515Z,10.53
2022-10-23T01:40:42.248Z,8.77
2022-10-23T02:08:00.694Z,14.03
2022-10-23T02:13:12.310Z,13.63
2022-10-23T02:18:49.805Z,12.87
2022-10-23T02:23:52.530Z,12.50
2022-10-23T02:28:59.641Z,12.77
2022-10-23T02:33:52.018Z,14.10
2022-10-23T02:38:46.062Z,13.70
2022-10-23T02:43:46.308Z,14.80
2022-10-23T02:49:12.005Z,14.50
2022-10-23T02:54:52.967Z,14.20
2022-10-23T02:59:54.981Z,13.90
2022-10-23T03:04:48.099Z,13.47
2022-10-23T03:09:40.654Z,15.13
2022-10-23T03:14:33.407Z,13.53
2022-10-23T03:19:30.832Z,15.27
2022-10-23T03:24:23.973Z,14.83
2022-10-23T03:29:17.541Z,14.00
2022-10-23T03:34:11.810Z,12.20
2022-10-23T03:39:06.039Z,14.80
2022-10-23T03:43:58.424Z,14.27
2022-10-23T03:48:50.644Z,14.10
2022-10-23T03:53:44.477Z,12.17
2022-10-23T03:58:36.708Z,15.67
2022-10-23T04:03:28.898Z,14.77
2022-10-23T04:08:21.469Z,13.20
2022-10-23T04:13:16.678Z,13.80
2022-10-23T04:18:08.951Z,17.03
2022-10-23T04:23:01.191Z,13.57
2022-10-23T04:27:53.394Z,16.80
2022-10-23T04:32:53.007Z,16.83
2022-10-23T04:37:46.105Z,15.63
2022-10-23T04:42:38.316Z,14.07
2022-10-23T04:47:30.636Z,14.30
2022-10-23T04:58:07.028Z,13.63
2022-10-23T05:02:59.436Z,13.67
2022-10-23T05:07:57.733Z,13.70
2022-10-23T05:13:02.488Z,12.93
2022-10-23T05:18:02.747Z,12.53
2022-10-23T05:22:59.162Z,14.63
2022-10-23T05:27:52.589Z,12.13
2022-10-23T05:32:45.340Z,14.30
2022-10-23T05:37:41.706Z,15.40
2022-10-23T05:42:41.557Z,19.63
2022-10-23T05:47:36.184Z,20.87
2022-10-23T06:12:55.992Z,15.53
2022-10-23T06:17:48.818Z,18.33
2022-10-23T06:22:41.996Z,16.80
2022-10-23T06:27:54.620Z,16.00
2022-10-23T06:32:50.409Z,16.57
2022-10-23T06:37:43.066Z,15.03
2022-10-23T06:42:43.645Z,14.10
2022-10-23T06:47:51.325Z,14.00
2022-10-23T06:52:59.191Z,13.73
2022-10-23T06:57:53.627Z,11.37
2022-10-23T07:02:46.287Z,10.77
2022-10-23T07:07:39.414Z,11.20
2022-10-23T07:12:32.149Z,12.07
2022-10-23T07:17:50.500Z,10.67
2022-10-23T07:22:44.803Z,7.90
2022-10-23T07:27:40.299Z,7.20
2022-10-23T07:32:34.946Z,7.73
2022-10-23T07:37:46.493Z,7.23
2022-10-23T07:42:39.436Z,7.70
2022-10-23T07:47:35.855Z,7.70
2022-10-23T07:52:32.097Z,6.50
2022-10-23T07:57:44.474Z,5.93
2022-10-23T08:02:54.378Z,6.53
2022-10-23T08:07:47.190Z,6.83
2022-10-23T08:12:43.269Z,6.50
2022-10-23T08:17:37.149Z,9.57
2022-10-23T08:22:42.945Z,42.10
2022-10-23T08:27:40.013Z,9.10
2022-10-23T08:32:32.636Z,20.57
2022-10-23T08:37:27.104Z,6.00
2022-10-23T08:42:22.565Z,7.87
2022-10-23T08:47:25.504Z,8.00
2022-10-23T08:52:29.191Z,5.90
2022-10-23T08:57:37.749Z,4.60
2022-10-23T09:02:46.282Z,5.90
2022-10-23T09:07:54.705Z,4.30
2022-10-23T09:13:25.611Z,4.53
2022-10-23T09:18:18.485Z,4.13
2022-10-23T09:23:23.633Z,3.60
2022-10-23T09:28:35.373Z,4.20
2022-10-23T09:33:28.583Z,9.20
2022-10-23T09:38:21.355Z,3.97
2022-10-23T09:43:19.306Z,3.80
2022-10-23T09:53:31.734Z,3.60
2022-10-23T09:58:36.142Z,3.23
2022-10-23T10:03:29.085Z,3.77
2022-10-23T10:08:51.955Z,3.37
2022-10-23T10:13:58.894Z,3.33
2022-10-23T10:19:05.590Z,3.30
2022-10-23T10:24:57.900Z,4.10
2022-10-23T10:30:01.437Z,3.97
2022-10-23T10:35:38.581Z,4.63
2022-10-23T10:40:34.289Z,4.33
2022-10-23T10:50:50.823Z,3.80
2022-10-23T10:57:00.071Z,4.87
2022-10-23T11:02:06.323Z,4.40
2022-10-23T11:07:02.063Z,3.50
2022-10-23T11:11:55.851Z,3.43
2022-10-23T11:17:14.178Z,3.83
2022-10-23T11:22:23.948Z,3.50
2022-10-23T11:27:38.374Z,3.40
2022-10-23T11:33:11.654Z,3.83
2022-10-23T11:38:35.428Z,3.47
2022-10-23T11:43:28.220Z,2.80
2022-10-23T11:48:40.929Z,3.10
2022-10-23T11:53:45.485Z,3.50
2022-10-23T11:58:54.648Z,3.60
2022-10-23T12:03:56.607Z,3.90
2022-10-23T12:08:55.217Z,3.20
2022-10-23T12:13:48.011Z,3.43
2022-10-23T12:18:53.645Z,3.90
2022-10-23T12:24:18.474Z,3.90
2022-10-23T12:29:30.299Z,3.93
2022-10-23T12:34:40.244Z,3.30
2022-10-23T12:39:39.923Z,3.57
2022-10-23T12:44:32.831Z,3.10
2022-10-23T12:49:28.262Z,3.33
2022-10-23T12:54:24.874Z,3.50
2022-10-23T12:59:36.740Z,3.10
2022-10-23T13:04:32.506Z,3.13
2022-10-23T13:09:36.588Z,3.43
2022-10-23T13:15:07.171Z,3.00
2022-10-23T13:20:31.457Z,3.40
2022-10-23T13:25:34.398Z,3.67
2022-10-23T13:30:45.534Z,3.30
2022-10-23T13:35:38.691Z,4.93
2022-10-23T13:40:35.849Z,5.80
2022-10-23T13:45:31.337Z,3.27
2022-10-23T13:50:23.975Z,3.30
2022-10-23T13:55:24.725Z,3.50
2022-10-23T14:00:22.220Z,3.60
2022-10-23T14:05:19.987Z,4.07
2022-10-23T14:10:13.020Z,4.07
2022-10-23T14:15:05.898Z,3.97
2022-10-23T14:19:58.654Z,4.20
2022-10-23T14:24:54.827Z,4.40
2022-10-23T14:29:50.560Z,3.50
2022-10-23T14:34:44.601Z,4.13
2022-10-23T14:39:40.351Z,4.80
2022-10-23T14:44:33.528Z,3.80
2022-10-23T14:49:26.291Z,4.17
2022-10-23T14:54:22.010Z,4.43
2022-10-23T15:00:03.372Z,4.80
2022-10-23T15:05:05.745Z,4.47
2022-10-23T15:10:02.261Z,4.17
2022-10-23T15:14:58.582Z,4.80
2022-10-23T15:19:53.743Z,5.07
2022-10-23T15:24:50.819Z,4.67
2022-10-23T15:29:45.491Z,4.90
2022-10-23T15:34:43.970Z,5.70
2022-10-23T15:39:57.187Z,4.97
2022-10-23T15:44:55.464Z,5.00
2022-10-23T15:49:48.764Z,5.13
2022-10-23T15:54:41.909Z,4.87
2022-10-23T15:59:36.507Z,5.60
2022-10-23T16:04:30.127Z,5.20
2022-10-23T16:09:23.241Z,6.17
2022-10-23T16:14:23.360Z,5.67
2022-10-23T16:19:16.588Z,5.10
2022-10-23T16:24:12.556Z,6.30
2022-10-23T16:29:08.482Z,5.53
2022-10-23T16:34:06.247Z,5.20
2022-10-23T16:38:59.780Z,6.00
2022-10-23T16:44:12.326Z,5.80
2022-10-23T16:49:26.185Z,9.57
2022-10-23T16:54:31.108Z,6.17
2022-10-23T16:59:34.137Z,6.17
2022-10-23T17:04:34.210Z,6.30
2022-10-23T17:09:38.722Z,6.20
2022-10-23T17:14:39.432Z,6.40
2022-10-23T17:19:45.901Z,6.90
2022-10-23T17:24:43.530Z,7.20
2022-10-23T17:29:51.131Z,7.17
2022-10-23T17:34:50.218Z,7.67
2022-10-23T17:39:42.623Z,8.33
2022-10-23T17:44:38.314Z,8.73
2022-10-23T17:49:36.061Z,8.70
2022-10-23T17:54:30.381Z,9.50
2022-10-23T17:59:25.875Z,9.23
2022-10-23T18:04:43.024Z,11.10
2022-10-23T18:09:42.264Z,9.93
2022-10-23T18:14:49.010Z,10.83
2022-10-23T18:25:23.780Z,11.67
2022-10-23T18:30:20.191Z,10.80
2022-10-23T18:35:30.644Z,10.70
2022-10-23T18:40:27.973Z,11.63
2022-10-23T18:45:26.668Z,11.30
2022-10-23T18:50:39.821Z,12.70
2022-10-23T18:55:35.857Z,12.23
2022-10-23T19:00:44.122Z,12.17
2022-10-23T19:05:48.382Z,12.27
2022-10-23T19:10:52.799Z,12.40
2022-10-23T19:16:07.074Z,13.27
2022-10-23T19:21:15.933Z,14.27
2022-10-23T19:26:27.504Z,14.03
2022-10-23T19:31:34.122Z,14.67
2022-10-23T19:36:31.820Z,13.47
2022-10-23T19:41:30.764Z,14.70
2022-10-23T19:46:24.163Z,14.77
2022-10-23T19:51:32.751Z,15.00
2022-10-23T19:56:36.297Z,14.33
2022-10-23T20:01:37.041Z,14.63
2022-10-23T20:06:37.343Z,14.87
2022-10-23T20:11:38.156Z,13.60
2022-10-23T20:16:42.299Z,14.43
2022-10-23T20:21:46.572Z,13.70
2022-10-23T20:27:04.788Z,12.93
2022-10-23T20:32:00.121Z,12.90
2022-10-23T20:37:13.646Z,13.67
2022-10-23T20:42:16.613Z,12.43
2022-10-23T20:47:32.327Z,10.80
2022-10-23T20:57:32.215Z,10.83
2022-10-23T21:02:32.107Z,10.87
2022-10-23T21:07:29.964Z,11.10
2022-10-23T21:12:24.519Z,10.50
2022-10-23T21:17:18.387Z,10.30
2022-10-23T21:22:15.020Z,11.33
2022-10-23T21:27:07.634Z,9.80
2022-10-23T21:32:03.737Z,10.10
2022-10-23T21:37:13.515Z,10.20
2022-10-23T21:42:06.774Z,11.73
2022-10-23T21:46:59.468Z,11.07
2022-10-23T21:51:52.235Z,12.00
2022-10-23T21:56:46.180Z,12.03
2022-10-23T22:01:40.418Z,13.43
2022-10-23T22:06:36.320Z,14.17
2022-10-23T22:11:30.980Z,12.50
2022-10-23T22:16:25.814Z,12.90
2022-10-23T22:21:24.277Z,13.00
2022-10-23T22:26:30.072Z,12.83
2022-10-23T22:36:40.514Z,13.07
2022-10-23T22:41:33.442Z,13.60
2022-10-23T22:46:28.421Z,13.07
2022-10-23T22:51:31.264Z,12.60
2022-10-23T22:56:27.648Z,11.63
2022-10-23T23:01:28.187Z,11.40
2022-10-23T23:06:24.704Z,11.37
2022-10-23T23:11:18.670Z,12.10
2022-10-23T23:16:37.723Z,11.30
2022-10-23T23:21:31.382Z,11.90
2022-10-23T23:26:24.800Z,11.50
2022-10-23T23:31:19.829Z,12.73
2022-10-23T23:36:14.769Z,13.23
2022-10-23T23:41:07.665Z,13.40
2022-10-23T23:46:01.449Z,14.10
2022-10-23T23:50:54.113Z,13.87
2022-10-23T23:55:46.864Z,14.20
